sensor_id;sensor_type;location;lat;lon;timestamp;pressure;altitude;pressure_sealevel;temperature;humidity
44103;BME280;29769;42.178;24.742;2023-09-12T00:01:47;99814.56;;;14.50;100.00
44103;BME280;29769;42.178;24.742;2023-09-12T00:04:32;99814.34;;;14.57;100.00
44103;BME280;29769;42.178;24.742;2023-09-12T00:07:16;99810.72;;;14.60;100.00
44103;BME280;29769;42.178;24.742;2023-09-12T00:10:01;99816.88;;;14.62;100.00
44103;BME280;29769;42.178;24.742;2023-09-12T00:12:46;99823.16;;;14.58;100.00
44103;BME280;29769;42.178;24.742;2023-09-12T00:15:30;99817.59;;;14.67;100.00
44103;BME280;29769;42.178;24.742;2023-09-12T00:18:15;99825.06;;;14.53;100.00
44103;BME280;29769;42.178;24.742;2023-09-12T00:20:59;99823.09;;;14.29;100.00
44103;BME280;29769;42.178;24.742;2023-09-12T00:23:45;99831.41;;;14.15;100.00
44103;BME280;29769;42.178;24.742;2023-09-12T00:26:29;99832.00;;;13.94;100.00
44103;BME280;29769;42.178;24.742;2023-09-12T00:29:15;99823.81;;;13.69;100.00
44103;BME280;29769;42.178;24.742;2023-09-12T00:31:59;99835.53;;;13.59;100.00
44103;BME280;29769;42.178;24.742;2023-09-12T00:34:44;99839.28;;;13.50;100.00
44103;BME280;29769;42.178;24.742;2023-09-12T00:37:28;99841.97;;;13.49;100.00
44103;BME280;29769;42.178;24.742;2023-09-12T00:40:13;99843.78;;;13.47;100.00
44103;BME280;29769;42.178;24.742;2023-09-12T00:42:58;99841.97;;;13.49;100.00
44103;BME280;29769;42.178;24.742;2023-09-12T00:45:42;99841.06;;;13.50;100.00
44103;BME280;29769;42.178;24.742;2023-09-12T00:48:28;99842.75;;;13.52;100.00
44103;BME280;29769;42.178;24.742;2023-09-12T00:51:14;99842.66;;;13.57;100.00
44103;BME280;29769;42.178;24.742;2023-09-12T00:54:00;99833.22;;;13.47;100.00
44103;BME280;29769;42.178;24.742;2023-09-12T00:56:45;99838.50;;;13.47;100.00
44103;BME280;29769;42.178;24.742;2023-09-12T00:59:30;99841.34;;;13.39;100.00
44103;BME280;29769;42.178;24.742;2023-09-12T01:02:15;99846.75;;;13.33;100.00
44103;BME280;29769;42.178;24.742;2023-09-12T01:05:00;99847.75;;;13.27;100.00
44103;BME280;29769;42.178;24.742;2023-09-12T01:07:46;99834.97;;;13.11;100.00
44103;BME280;29769;42.178;24.742;2023-09-12T01:10:30;99841.13;;;13.11;100.00
44103;BME280;29769;42.178;24.742;2023-09-12T01:13:15;99849.81;;;13.15;100.00
44103;BME280;29769;42.178;24.742;2023-09-12T01:16:00;99845.44;;;13.14;100.00
44103;BME280;29769;42.178;24.742;2023-09-12T01:18:44;99850.59;;;13.20;100.00
44103;BME280;29769;42.178;24.742;2023-09-12T01:27:10;99854.78;;;13.28;100.00
44103;BME280;29769;42.178;24.742;2023-09-12T01:29:57;99852.06;;;13.31;100.00
44103;BME280;29769;42.178;24.742;2023-09-12T01:32:42;99845.13;;;13.27;100.00
44103;BME280;29769;42.178;24.742;2023-09-12T01:35:26;99849.63;;;13.24;100.00
44103;BME280;29769;42.178;24.742;2023-09-12T01:38:11;99850.47;;;13.26;100.00
44103;BME280;29769;42.178;24.742;2023-09-12T01:40:55;99857.56;;;13.22;100.00
44103;BME280;29769;42.178;24.742;2023-09-12T01:43:41;99861.28;;;13.14;100.00
44103;BME280;29769;42.178;24.742;2023-09-12T01:46:27;99858.78;;;13.08;100.00
44103;BME280;29769;42.178;24.742;2023-09-12T01:49:11;99858.81;;;13.06;100.00
44103;BME280;29769;42.178;24.742;2023-09-12T01:51:58;99862.41;;;13.02;100.00
44103;BME280;29769;42.178;24.742;2023-09-12T01:54:43;99812.94;;;12.72;100.00
44103;BME280;29769;42.178;24.742;2023-09-12T01:57:28;99859.97;;;12.93;100.00
44103;BME280;29769;42.178;24.742;2023-09-12T02:00:13;99864.50;;;12.88;100.00
44103;BME280;29769;42.178;24.742;2023-09-12T02:02:58;99865.38;;;12.88;100.00
44103;BME280;29769;42.178;24.742;2023-09-12T02:05:43;99868.19;;;12.81;100.00
44103;BME280;29769;42.178;24.742;2023-09-12T02:08:28;99865.69;;;12.73;100.00
44103;BME280;29769;42.178;24.742;2023-09-12T02:11:13;99868.41;;;12.69;100.00
44103;BME280;29769;42.178;24.742;2023-09-12T02:13:57;99866.75;;;12.65;100.00
44103;BME280;29769;42.178;24.742;2023-09-12T02:16:42;99859.59;;;12.70;100.00
44103;BME280;29769;42.178;24.742;2023-09-12T02:19:26;99863.25;;;12.64;100.00
44103;BME280;29769;42.178;24.742;2023-09-12T02:22:11;99859.78;;;12.62;100.00
44103;BME280;29769;42.178;24.742;2023-09-12T02:24:56;99860.66;;;12.63;100.00
44103;BME280;29769;42.178;24.742;2023-09-12T02:27:40;99859.03;;;12.56;100.00
44103;BME280;29769;42.178;24.742;2023-09-12T02:30:25;99861.75;;;12.51;100.00
44103;BME280;29769;42.178;24.742;2023-09-12T02:33:09;99864.47;;;12.48;100.00
44103;BME280;29769;42.178;24.742;2023-09-12T02:35:54;99864.56;;;12.42;100.00
44103;BME280;29769;42.178;24.742;2023-09-12T02:38:38;99860.25;;;12.38;100.00
44103;BME280;29769;42.178;24.742;2023-09-12T02:41:23;99859.41;;;12.37;100.00
44103;BME280;29769;42.178;24.742;2023-09-12T02:44:07;99858.53;;;12.37;100.00
44103;BME280;29769;42.178;24.742;2023-09-12T02:46:52;99857.44;;;12.47;100.00
44103;BME280;29769;42.178;24.742;2023-09-12T02:49:36;99863.63;;;12.46;100.00
44103;BME280;29769;42.178;24.742;2023-09-12T02:52:21;99870.81;;;12.39;100.00
44103;BME280;29769;42.178;24.742;2023-09-12T02:55:06;99866.44;;;12.37;100.00
44103;BME280;29769;42.178;24.742;2023-09-12T02:57:51;99867.38;;;12.34;100.00
44103;BME280;29769;42.178;24.742;2023-09-12T03:00:39;99867.38;;;12.34;100.00
44103;BME280;29769;42.178;24.742;2023-09-12T03:03:25;99866.59;;;12.29;100.00
44103;BME280;29769;42.178;24.742;2023-09-12T03:06:10;99867.56;;;12.25;100.00
44103;BME280;29769;42.178;24.742;2023-09-12T03:08:54;99866.78;;;12.20;100.00
44103;BME280;29769;42.178;24.742;2023-09-12T03:11:39;99871.19;;;12.18;100.00
44103;BME280;29769;42.178;24.742;2023-09-12T03:14:23;99880.84;;;12.21;100.00
44103;BME280;29769;42.178;24.742;2023-09-12T03:17:08;99872.06;;;12.19;100.00
44103;BME280;29769;42.178;24.742;2023-09-12T03:19:53;99871.25;;;12.17;100.00
44103;BME280;29769;42.178;24.742;2023-09-12T03:22:37;99880.13;;;12.11;100.00
44103;BME280;29769;42.178;24.742;2023-09-12T03:25:22;99881.03;;;12.09;100.00
44103;BME280;29769;42.178;24.742;2023-09-12T03:28:07;99881.09;;;12.06;100.00
44103;BME280;29769;42.178;24.742;2023-09-12T03:30:52;99875.91;;;12.01;100.00
44103;BME280;29769;42.178;24.742;2023-09-12T03:33:47;99887.41;;;11.97;100.00
44103;BME280;29769;42.178;24.742;2023-09-12T03:36:36;99886.56;;;11.95;100.00
44103;BME280;29769;42.178;24.742;2023-09-12T03:39:21;99887.41;;;11.97;100.00
44103;BME280;29769;42.178;24.742;2023-09-12T03:42:05;99887.41;;;11.98;100.00
44103;BME280;29769;42.178;24.742;2023-09-12T03:44:50;99895.31;;;11.98;100.00
44103;BME280;29769;42.178;24.742;2023-09-12T03:47:35;99890.94;;;11.96;100.00
44103;BME280;29769;42.178;24.742;2023-09-12T03:50:20;99891.91;;;11.90;100.00
44103;BME280;29769;42.178;24.742;2023-09-12T03:53:04;99897.25;;;11.86;100.00
44103;BME280;29769;42.178;24.742;2023-09-12T03:55:49;99903.47;;;11.83;100.00
44103;BME280;29769;42.178;24.742;2023-09-12T03:58:34;99896.34;;;11.88;100.00
44103;BME280;29769;42.178;24.742;2023-09-12T04:01:19;99902.22;;;12.04;100.00
44103;BME280;29769;42.178;24.742;2023-09-12T04:04:04;99904.75;;;12.12;100.00
44103;BME280;29769;42.178;24.742;2023-09-12T04:06:48;99906.34;;;12.20;100.00
44103;BME280;29769;42.178;24.742;2023-09-12T04:09:33;99913.09;;;12.35;100.00
44103;BME280;29769;42.178;24.742;2023-09-12T04:12:17;99909.59;;;12.34;100.00
44103;BME280;29769;42.178;24.742;2023-09-12T04:15:02;99912.31;;;12.30;100.00
44103;BME280;29769;42.178;24.742;2023-09-12T04:17:47;99910.53;;;12.30;100.00
44103;BME280;29769;42.178;24.742;2023-09-12T04:20:32;99908.88;;;12.26;100.00
44103;BME280;29769;42.178;24.742;2023-09-12T04:23:17;99901.88;;;12.22;100.00
44103;BME280;29769;42.178;24.742;2023-09-12T04:26:02;99909.13;;;12.11;100.00
44103;BME280;29769;42.178;24.742;2023-09-12T04:28:48;99906.41;;;12.16;100.00
44103;BME280;29769;42.178;24.742;2023-09-12T04:31:33;99909.63;;;12.31;100.00
44103;BME280;29769;42.178;24.742;2023-09-12T04:34:17;99902.53;;;12.35;100.00
44103;BME280;29769;42.178;24.742;2023-09-12T04:37:02;99904.34;;;12.31;100.00
44103;BME280;29769;42.178;24.742;2023-09-12T04:39:48;99902.66;;;12.29;100.00
44103;BME280;29769;42.178;24.742;2023-09-12T04:42:32;99910.50;;;12.32;100.00
44103;BME280;29769;42.178;24.742;2023-09-12T04:45:17;99907.84;;;12.33;100.00
44103;BME280;29769;42.178;24.742;2023-09-12T04:48:02;99909.53;;;12.36;100.00
44103;BME280;29769;42.178;24.742;2023-09-12T04:50:47;99912.78;;;12.50;100.00
44103;BME280;29769;42.178;24.742;2023-09-12T04:53:32;99916.03;;;12.64;100.00
44103;BME280;29769;42.178;24.742;2023-09-12T04:56:21;99906.06;;;12.77;100.00
44103;BME280;29769;42.178;24.742;2023-09-12T04:59:08;99907.44;;;12.96;100.00
44103;BME280;29769;42.178;24.742;2023-09-12T05:01:53;99911.53;;;13.12;100.00
44103;BME280;29769;42.178;24.742;2023-09-12T05:04:37;99913.53;;;13.40;100.00
44103;BME280;29769;42.178;24.742;2023-09-12T05:07:22;99906.75;;;13.65;100.00
44103;BME280;29769;42.178;24.742;2023-09-12T05:10:08;99910.50;;;13.92;100.00
44103;BME280;29769;42.178;24.742;2023-09-12T05:12:53;99906.78;;;14.31;100.00
44103;BME280;29769;42.178;24.742;2023-09-12T05:15:38;99899.69;;;14.67;100.00
44103;BME280;29769;42.178;24.742;2023-09-12T05:18:24;99906.09;;;14.89;100.00
44103;BME280;29769;42.178;24.742;2023-09-12T05:21:09;99897.31;;;15.17;100.00
44103;BME280;29769;42.178;24.742;2023-09-12T05:23:53;99896.72;;;15.07;100.00
44103;BME280;29769;42.178;24.742;2023-09-12T05:26:38;99905.78;;;15.28;100.00
44103;BME280;29769;42.178;24.742;2023-09-12T05:29:22;99910.25;;;15.55;100.00
44103;BME280;29769;42.178;24.742;2023-09-12T05:32:07;99902.97;;;16.14;100.00
44103;BME280;29769;42.178;24.742;2023-09-12T05:34:52;99896.97;;;16.34;100.00
44103;BME280;29769;42.178;24.742;2023-09-12T05:37:37;99901.72;;;16.24;100.00
44103;BME280;29769;42.178;24.742;2023-09-12T05:40:22;99904.16;;;16.55;100.00
44103;BME280;29769;42.178;24.742;2023-09-12T05:43:07;99899.94;;;16.98;100.00
44103;BME280;29769;42.178;24.742;2023-09-12T05:45:52;99898.63;;;17.31;100.00
44103;BME280;29769;42.178;24.742;2023-09-12T05:48:36;99904.25;;;17.68;100.00
44103;BME280;29769;42.178;24.742;2023-09-12T05:51:21;99887.59;;;17.63;100.00
44103;BME280;29769;42.178;24.742;2023-09-12T05:54:06;99889.53;;;18.02;100.00
44103;BME280;29769;42.178;24.742;2023-09-12T05:56:52;99885.06;;;18.22;100.00
44103;BME280;29769;42.178;24.742;2023-09-12T05:59:38;99888.88;;;18.17;100.00
44103;BME280;29769;42.178;24.742;2023-09-12T06:02:24;99881.63;;;18.20;100.00
44103;BME280;29769;42.178;24.742;2023-09-12T06:05:09;99883.03;;;18.70;100.00
44103;BME280;29769;42.178;24.742;2023-09-12T06:07:53;99890.91;;;19.29;100.00
44103;BME280;29769;42.178;24.742;2023-09-12T06:10:38;99888.28;;;18.90;100.00
44103;BME280;29769;42.178;24.742;2023-09-12T06:13:22;99891.59;;;18.76;100.00
44103;BME280;29769;42.178;24.742;2023-09-12T06:16:07;99896.03;;;19.52;100.00
44103;BME280;29769;42.178;24.742;2023-09-12T06:18:52;99897.31;;;20.32;100.00
44103;BME280;29769;42.178;24.742;2023-09-12T06:21:38;99899.84;;;20.53;100.00
44103;BME280;29769;42.178;24.742;2023-09-12T06:24:22;99902.25;;;20.90;100.00
44103;BME280;29769;42.178;24.742;2023-09-12T06:27:08;99898.44;;;20.78;100.00
44103;BME280;29769;42.178;24.742;2023-09-12T06:29:52;99907.13;;;20.66;100.00
44103;BME280;29769;42.178;24.742;2023-09-12T06:32:37;99911.91;;;20.60;100.00
44103;BME280;29769;42.178;24.742;2023-09-12T06:35:23;99864.38;;;21.46;100.00
44103;BME280;29769;42.178;24.742;2023-09-12T06:38:07;99900.41;;;22.32;97.09
44103;BME280;29769;42.178;24.742;2023-09-12T06:40:52;99903.69;;;22.51;92.37
44103;BME280;29769;42.178;24.742;2023-09-12T06:43:36;99905.09;;;23.29;80.49
44103;BME280;29769;42.178;24.742;2023-09-12T06:46:21;99900.16;;;24.03;66.90
44103;BME280;29769;42.178;24.742;2023-09-12T06:49:05;99907.25;;;23.91;64.16
44103;BME280;29769;42.178;24.742;2023-09-12T06:51:50;99898.94;;;24.61;56.07
44103;BME280;29769;42.178;24.742;2023-09-12T06:54:35;99901.56;;;24.23;54.39
44103;BME280;29769;42.178;24.742;2023-09-12T06:57:19;99898.28;;;23.52;56.79
44103;BME280;29769;42.178;24.742;2023-09-12T07:00:04;99896.94;;;23.44;56.52
44103;BME280;29769;42.178;24.742;2023-09-12T07:02:51;99899.13;;;23.52;54.81
44103;BME280;29769;42.178;24.742;2023-09-12T07:05:36;99895.69;;;24.43;53.67
44103;BME280;29769;42.178;24.742;2023-09-12T07:08:26;99895.50;;;24.84;49.88
44103;BME280;29769;42.178;24.742;2023-09-12T07:11:10;99891.56;;;25.26;47.95
44103;BME280;29769;42.178;24.742;2023-09-12T07:13:55;99894.53;;;26.07;45.26
44103;BME280;29769;42.178;24.742;2023-09-12T07:16:39;99856.13;;;26.27;45.05
44103;BME280;29769;42.178;24.742;2023-09-12T07:19:24;99886.81;;;27.17;41.95
44103;BME280;29769;42.178;24.742;2023-09-12T07:22:08;99891.16;;;27.73;40.74
44103;BME280;29769;42.178;24.742;2023-09-12T07:24:53;99893.41;;;27.68;40.41
44103;BME280;29769;42.178;24.742;2023-09-12T07:27:38;99884.97;;;28.88;38.29
44103;BME280;29769;42.178;24.742;2023-09-12T07:30:23;99885.47;;;30.59;36.87
44103;BME280;29769;42.178;24.742;2023-09-12T07:33:07;99886.84;;;32.01;34.16
44103;BME280;29769;42.178;24.742;2023-09-12T07:35:52;99882.91;;;31.41;35.06
44103;BME280;29769;42.178;24.742;2023-09-12T07:38:38;99879.38;;;31.31;34.18
44103;BME280;29769;42.178;24.742;2023-09-12T07:41:22;99872.50;;;31.37;34.10
44103;BME280;29769;42.178;24.742;2023-09-12T07:44:07;99882.75;;;32.33;32.40
44103;BME280;29769;42.178;24.742;2023-09-12T07:46:55;99878.47;;;33.67;31.38
44103;BME280;29769;42.178;24.742;2023-09-12T07:49:40;99875.28;;;34.04;29.86
44103;BME280;29769;42.178;24.742;2023-09-12T07:52:24;99878.34;;;32.75;31.52
44103;BME280;29769;42.178;24.742;2023-09-12T07:55:09;99878.50;;;33.33;30.51
44103;BME280;29769;42.178;24.742;2023-09-12T07:57:53;99869.59;;;32.72;30.81
44103;BME280;29769;42.178;24.742;2023-09-12T08:00:38;99875.28;;;30.80;33.78
44103;BME280;29769;42.178;24.742;2023-09-12T08:03:22;99871.41;;;32.19;31.29
44103;BME280;29769;42.178;24.742;2023-09-12T08:06:07;99864.13;;;33.23;30.65
44103;BME280;29769;42.178;24.742;2023-09-12T08:08:53;99868.56;;;32.47;31.20
44103;BME280;29769;42.178;24.742;2023-09-12T08:11:37;99863.72;;;34.34;28.81
44103;BME280;29769;42.178;24.742;2023-09-12T08:14:22;99859.22;;;34.98;27.83
44103;BME280;29769;42.178;24.742;2023-09-12T08:17:06;99864.97;;;35.28;27.44
44103;BME280;29769;42.178;24.742;2023-09-12T08:19:51;99860.50;;;34.31;28.60
44103;BME280;29769;42.178;24.742;2023-09-12T08:22:36;99850.75;;;34.69;28.27
44103;BME280;29769;42.178;24.742;2023-09-12T08:25:21;99852.88;;;36.52;26.07
44103;BME280;29769;42.178;24.742;2023-09-12T08:28:05;99848.88;;;37.21;24.96
44103;BME280;29769;42.178;24.742;2023-09-12T08:30:50;99844.69;;;37.40;25.11
44103;BME280;29769;42.178;24.742;2023-09-12T08:33:35;99849.63;;;37.01;25.42
44103;BME280;29769;42.178;24.742;2023-09-12T08:36:20;99843.91;;;37.97;24.71
44103;BME280;29769;42.178;24.742;2023-09-12T08:39:04;99842.41;;;39.20;23.05
44103;BME280;29769;42.178;24.742;2023-09-12T08:41:52;99844.47;;;40.39;21.79
44103;BME280;29769;42.178;24.742;2023-09-12T08:44:37;99839.75;;;39.33;21.93
44103;BME280;29769;42.178;24.742;2023-09-12T08:47:22;99840.69;;;39.60;21.06
44103;BME280;29769;42.178;24.742;2023-09-12T08:50:11;99838.31;;;39.50;21.71
44103;BME280;29769;42.178;24.742;2023-09-12T08:52:57;99833.91;;;38.32;23.05
44103;BME280;29769;42.178;24.742;2023-09-12T08:55:42;99833.09;;;37.09;23.69
44103;BME280;29769;42.178;24.742;2023-09-12T08:58:26;99833.00;;;36.13;24.52
44103;BME280;29769;42.178;24.742;2023-09-12T09:01:13;99832.81;;;36.74;24.48
44103;BME280;29769;42.178;24.742;2023-09-12T09:04:01;99833.81;;;37.61;23.33
44103;BME280;29769;42.178;24.742;2023-09-12T09:06:47;99841.19;;;38.95;22.11
44103;BME280;29769;42.178;24.742;2023-09-12T09:09:32;99831.06;;;40.89;20.35
44103;BME280;29769;42.178;24.742;2023-09-12T09:12:17;99827.63;;;41.71;19.79
44103;BME280;29769;42.178;24.742;2023-09-12T09:15:22;99826.41;;;40.96;20.08
44103;BME280;29769;42.178;24.742;2023-09-12T09:18:07;99826.06;;;41.82;19.41
44103;BME280;29769;42.178;24.742;2023-09-12T09:20:51;99819.56;;;43.07;18.17
44103;BME280;29769;42.178;24.742;2023-09-12T09:23:43;99815.16;;;43.17;18.31
44103;BME280;29769;42.178;24.742;2023-09-12T09:29:25;99813.28;;;44.84;16.65
44103;BME280;29769;42.178;24.742;2023-09-12T09:32:09;99804.88;;;45.42;16.56
44103;BME280;29769;42.178;24.742;2023-09-12T09:35:01;99811.78;;;45.16;16.21
44103;BME280;29769;42.178;24.742;2023-09-12T09:37:45;99805.59;;;43.79;16.84
44103;BME280;29769;42.178;24.742;2023-09-12T09:40:30;99803.91;;;43.12;17.59
44103;BME280;29769;42.178;24.742;2023-09-12T09:43:19;99795.69;;;43.72;17.81
44103;BME280;29769;42.178;24.742;2023-09-12T09:46:04;99798.69;;;43.22;18.10
44103;BME280;29769;42.178;24.742;2023-09-12T09:48:49;99790.16;;;42.87;18.13
44103;BME280;29769;42.178;24.742;2023-09-12T09:51:40;99790.69;;;43.32;17.46
44103;BME280;29769;42.178;24.742;2023-09-12T09:54:25;99791.91;;;44.61;16.72
44103;BME280;29769;42.178;24.742;2023-09-12T09:57:10;99784.28;;;45.54;16.14
44103;BME280;29769;42.178;24.742;2023-09-12T09:59:55;99785.75;;;44.59;16.69
44103;BME280;29769;42.178;24.742;2023-09-12T10:02:40;99788.91;;;45.94;15.90
44103;BME280;29769;42.178;24.742;2023-09-12T10:05:25;99779.94;;;44.95;16.66
44103;BME280;29769;42.178;24.742;2023-09-12T10:08:11;99780.47;;;43.15;17.20
44103;BME280;29769;42.178;24.742;2023-09-12T10:11:01;99778.97;;;43.30;17.08
44103;BME280;29769;42.178;24.742;2023-09-12T10:13:46;99779.16;;;44.07;16.88
44103;BME280;29769;42.178;24.742;2023-09-12T10:16:34;99765.72;;;44.92;15.92
44103;BME280;29769;42.178;24.742;2023-09-12T10:19:23;99766.69;;;44.86;16.22
44103;BME280;29769;42.178;24.742;2023-09-12T10:24:56;99769.13;;;41.87;18.10
44103;BME280;29769;42.178;24.742;2023-09-12T10:27:42;99766.41;;;44.17;16.82
44103;BME280;29769;42.178;24.742;2023-09-12T10:30:26;99764.00;;;45.71;15.70
44103;BME280;29769;42.178;24.742;2023-09-12T10:33:11;99758.00;;;42.86;17.27
44103;BME280;29769;42.178;24.742;2023-09-12T10:35:58;99767.09;;;43.90;17.17
44103;BME280;29769;42.178;24.742;2023-09-12T10:38:43;99761.09;;;45.49;15.74
44103;BME280;29769;42.178;24.742;2023-09-12T10:41:28;99751.34;;;44.95;16.43
44103;BME280;29769;42.178;24.742;2023-09-12T10:44:17;99750.72;;;43.40;17.26
44103;BME280;29769;42.178;24.742;2023-09-12T10:47:01;99749.63;;;43.59;17.46
44103;BME280;29769;42.178;24.742;2023-09-12T10:49:48;99740.53;;;44.47;16.57
44103;BME280;29769;42.178;24.742;2023-09-12T10:52:33;99736.56;;;44.31;16.27
44103;BME280;29769;42.178;24.742;2023-09-12T10:55:19;99732.56;;;44.50;16.48
44103;BME280;29769;42.178;24.742;2023-09-12T10:58:05;99731.25;;;43.76;16.83
44103;BME280;29769;42.178;24.742;2023-09-12T11:03:57;99721.94;;;44.82;16.38
44103;BME280;29769;42.178;24.742;2023-09-12T11:06:41;99715.75;;;42.97;17.32
44103;BME280;29769;42.178;24.742;2023-09-12T11:09:26;99707.88;;;42.58;17.67
44103;BME280;29769;42.178;24.742;2023-09-12T11:12:34;99704.47;;;42.13;17.67
44103;BME280;29769;42.178;24.742;2023-09-12T11:15:16;99709.41;;;41.86;17.89
44103;BME280;29769;42.178;24.742;2023-09-12T11:18:02;99702.44;;;40.24;19.33
44103;BME280;29769;42.178;24.742;2023-09-12T11:20:49;99694.13;;;40.50;19.07
44103;BME280;29769;42.178;24.742;2023-09-12T11:23:33;99691.28;;;40.76;18.86
44103;BME280;29769;42.178;24.742;2023-09-12T11:26:20;99687.28;;;42.11;17.70
44103;BME280;29769;42.178;24.742;2023-09-12T11:29:11;99698.78;;;39.64;19.57
44103;BME280;29769;42.178;24.742;2023-09-12T11:31:57;99686.94;;;40.16;19.33
44103;BME280;29769;42.178;24.742;2023-09-12T11:34:43;99689.28;;;40.32;19.20
44103;BME280;29769;42.178;24.742;2023-09-12T11:37:29;99692.63;;;41.81;18.21
44103;BME280;29769;42.178;24.742;2023-09-12T11:42:58;99673.09;;;44.11;16.57
44103;BME280;29769;42.178;24.742;2023-09-12T11:45:43;99676.66;;;43.65;17.54
44103;BME280;29769;42.178;24.742;2023-09-12T11:48:28;99669.28;;;42.63;17.73
44103;BME280;29769;42.178;24.742;2023-09-12T11:51:14;99676.84;;;42.92;17.68
44103;BME280;29769;42.178;24.742;2023-09-12T11:53:58;99666.03;;;44.27;17.02
44103;BME280;29769;42.178;24.742;2023-09-12T11:56:44;99668.13;;;43.37;17.29
44103;BME280;29769;42.178;24.742;2023-09-12T11:59:30;99666.72;;;41.76;18.90
44103;BME280;29769;42.178;24.742;2023-09-12T12:02:15;99657.75;;;41.87;18.52
44103;BME280;29769;42.178;24.742;2023-09-12T12:05:00;99659.78;;;43.67;17.58
44103;BME280;29769;42.178;24.742;2023-09-12T12:07:46;99653.69;;;44.98;16.52
44103;BME280;29769;42.178;24.742;2023-09-12T12:10:31;99644.09;;;44.02;17.01
44103;BME280;29769;42.178;24.742;2023-09-12T12:13:19;99633.28;;;41.34;19.14
44103;BME280;29769;42.178;24.742;2023-09-12T12:16:14;99637.69;;;41.10;19.41
44103;BME280;29769;42.178;24.742;2023-09-12T12:18:58;99630.13;;;42.48;18.63
44103;BME280;29769;42.178;24.742;2023-09-12T12:21:43;99627.81;;;44.06;17.25
44103;BME280;29769;42.178;24.742;2023-09-12T12:24:35;99626.94;;;41.83;18.31
44103;BME280;29769;42.178;24.742;2023-09-12T12:27:20;99627.56;;;40.91;19.27
44103;BME280;29769;42.178;24.742;2023-09-12T12:30:06;99626.56;;;39.36;20.48
44103;BME280;29769;42.178;24.742;2023-09-12T12:32:50;99626.13;;;38.71;21.07
44103;BME280;29769;42.178;24.742;2023-09-12T12:35:35;99622.53;;;39.58;21.17
44103;BME280;29769;42.178;24.742;2023-09-12T12:38:21;99622.53;;;40.24;19.69
44103;BME280;29769;42.178;24.742;2023-09-12T12:41:06;99614.84;;;39.21;20.87
44103;BME280;29769;42.178;24.742;2023-09-12T12:43:50;99622.94;;;40.14;20.23
44103;BME280;29769;42.178;24.742;2023-09-12T12:46:51;99611.44;;;41.57;19.13
44103;BME280;29769;42.178;24.742;2023-09-12T12:49:37;99612.81;;;41.73;19.35
44103;BME280;29769;42.178;24.742;2023-09-12T12:52:25;99608.72;;;41.76;19.38
44103;BME280;29769;42.178;24.742;2023-09-12T12:55:10;99597.41;;;42.45;18.29
44103;BME280;29769;42.178;24.742;2023-09-12T12:57:55;99608.69;;;41.57;18.77
44103;BME280;29769;42.178;24.742;2023-09-12T13:00:40;99610.78;;;40.61;19.42
44103;BME280;29769;42.178;24.742;2023-09-12T13:03:24;99602.00;;;39.54;20.30
44103;BME280;29769;42.178;24.742;2023-09-12T13:06:10;99605.41;;;39.36;20.49
44103;BME280;29769;42.178;24.742;2023-09-12T13:08:58;99596.09;;;39.83;20.08
44103;BME280;29769;42.178;24.742;2023-09-12T13:11:45;99604.06;;;39.12;21.11
44103;BME280;29769;42.178;24.742;2023-09-12T13:14:30;99605.28;;;40.41;20.07
44103;BME280;29769;42.178;24.742;2023-09-12T13:17:15;99610.06;;;38.68;20.59
44103;BME280;29769;42.178;24.742;2023-09-12T13:20:00;99605.22;;;38.30;20.97
44103;BME280;29769;42.178;24.742;2023-09-12T13:22:44;99602.66;;;38.76;20.68
44103;BME280;29769;42.178;24.742;2023-09-12T13:25:29;99595.88;;;39.65;20.07
44103;BME280;29769;42.178;24.742;2023-09-12T13:28:13;99597.28;;;39.08;20.63
44103;BME280;29769;42.178;24.742;2023-09-12T13:30:58;99600.34;;;38.32;21.22
44103;BME280;29769;42.178;24.742;2023-09-12T13:33:43;99596.38;;;38.00;21.34
44103;BME280;29769;42.178;24.742;2023-09-12T13:36:27;99590.41;;;37.96;21.84
44103;BME280;29769;42.178;24.742;2023-09-12T13:39:12;99598.56;;;39.26;20.34
44103;BME280;29769;42.178;24.742;2023-09-12T13:41:57;99590.59;;;39.83;20.04
44103;BME280;29769;42.178;24.742;2023-09-12T13:44:44;99588.34;;;40.38;19.82
44103;BME280;29769;42.178;24.742;2023-09-12T13:47:30;99578.84;;;40.08;19.91
44103;BME280;29769;42.178;24.742;2023-09-12T13:50:14;99585.72;;;39.79;19.50
44103;BME280;29769;42.178;24.742;2023-09-12T13:53:00;99585.03;;;38.50;20.31
44103;BME280;29769;42.178;24.742;2023-09-12T13:55:48;99579.63;;;37.95;20.65
44103;BME280;29769;42.178;24.742;2023-09-12T13:58:32;99583.97;;;38.10;21.10
44103;BME280;29769;42.178;24.742;2023-09-12T14:01:18;99582.78;;;37.92;21.03
44103;BME280;29769;42.178;24.742;2023-09-12T14:04:03;99579.97;;;37.57;21.41
44103;BME280;29769;42.178;24.742;2023-09-12T14:06:48;99579.47;;;38.03;21.37
44103;BME280;29769;42.178;24.742;2023-09-12T14:09:33;99582.94;;;38.18;21.29
44103;BME280;29769;42.178;24.742;2023-09-12T14:12:17;99580.16;;;39.06;20.75
44103;BME280;29769;42.178;24.742;2023-09-12T14:15:02;99582.28;;;39.24;20.55
44103;BME280;29769;42.178;24.742;2023-09-12T14:17:48;99582.16;;;38.85;21.27
44103;BME280;29769;42.178;24.742;2023-09-12T14:20:33;99566.84;;;39.49;20.60
44103;BME280;29769;42.178;24.742;2023-09-12T14:23:17;99580.66;;;38.76;20.81
44103;BME280;29769;42.178;24.742;2023-09-12T14:26:02;99570.97;;;38.80;20.78
44103;BME280;29769;42.178;24.742;2023-09-12T14:28:47;99567.75;;;38.15;21.46
44103;BME280;29769;42.178;24.742;2023-09-12T14:31:31;99570.22;;;36.19;22.83
44103;BME280;29769;42.178;24.742;2023-09-12T14:34:16;99570.84;;;36.65;23.03
44103;BME280;29769;42.178;24.742;2023-09-12T14:37:00;99571.81;;;37.00;22.63